sensor_id;sensor_type;location;lat;lon;timestamp;P1;durP1;ratioP1;P2;durP2;ratioP2
21192;SDS011;10754;51.106;7.164;2023-07-13T00:00:45;3.63;;;0.98;;
21192;SDS011;10754;51.106;7.164;2023-07-13T00:03:12;2.70;;;0.90;;
21192;SDS011;10754;51.106;7.164;2023-07-13T00:05:38;4.25;;;1.33;;
21192;SDS011;10754;51.106;7.164;2023-07-13T00:08:04;3.92;;;1.02;;
21192;SDS011;10754;51.106;7.164;2023-07-13T00:10:30;2.00;;;0.90;;
21192;SDS011;10754;51.106;7.164;2023-07-13T00:12:55;3.15;;;1.20;;
21192;SDS011;10754;51.106;7.164;2023-07-13T00:15:23;3.58;;;1.00;;
21192;SDS011;10754;51.106;7.164;2023-07-13T00:17:50;2.63;;;0.93;;
21192;SDS011;10754;51.106;7.164;2023-07-13T00:20:20;2.30;;;0.75;;
21192;SDS011;10754;51.106;7.164;2023-07-13T00:22:47;2.00;;;0.70;;
21192;SDS011;10754;51.106;7.164;2023-07-13T00:25:14;3.28;;;1.08;;
21192;SDS011;10754;51.106;7.164;2023-07-13T00:27:39;3.05;;;0.98;;
21192;SDS011;10754;51.106;7.164;2023-07-13T00:30:06;4.18;;;1.20;;
21192;SDS011;10754;51.106;7.164;2023-07-13T00:32:33;1.88;;;0.70;;
21192;SDS011;10754;51.106;7.164;2023-07-13T00:35:00;2.20;;;1.00;;
21192;SDS011;10754;51.106;7.164;2023-07-13T00:37:25;2.20;;;0.90;;
21192;SDS011;10754;51.106;7.164;2023-07-13T00:39:51;2.75;;;0.82;;
21192;SDS011;10754;51.106;7.164;2023-07-13T00:42:17;3.92;;;0.93;;
21192;SDS011;10754;51.106;7.164;2023-07-13T00:45:00;2.22;;;0.80;;
21192;SDS011;10754;51.106;7.164;2023-07-13T00:47:26;1.92;;;0.70;;
21192;SDS011;10754;51.106;7.164;2023-07-13T00:49:52;2.10;;;0.85;;
21192;SDS011;10754;51.106;7.164;2023-07-13T00:52:17;4.18;;;1.30;;
21192;SDS011;10754;51.106;7.164;2023-07-13T00:54:43;3.20;;;1.25;;
21192;SDS011;10754;51.106;7.164;2023-07-13T00:57:12;1.35;;;0.60;;
21192;SDS011;10754;51.106;7.164;2023-07-13T00:59:42;2.90;;;1.10;;
21192;SDS011;10754;51.106;7.164;2023-07-13T01:02:11;2.63;;;0.68;;
21192;SDS011;10754;51.106;7.164;2023-07-13T01:04:37;5.47;;;1.30;;
21192;SDS011;10754;51.106;7.164;2023-07-13T01:07:03;1.58;;;0.80;;
21192;SDS011;10754;51.106;7.164;2023-07-13T01:09:29;1.30;;;0.68;;
21192;SDS011;10754;51.106;7.164;2023-07-13T01:11:55;1.60;;;0.93;;
21192;SDS011;10754;51.106;7.164;2023-07-13T01:14:20;4.35;;;1.20;;
21192;SDS011;10754;51.106;7.164;2023-07-13T01:16:46;3.13;;;0.90;;
21192;SDS011;10754;51.106;7.164;2023-07-13T01:22:18;2.00;;;0.80;;
21192;SDS011;10754;51.106;7.164;2023-07-13T01:24:44;3.25;;;0.82;;
21192;SDS011;10754;51.106;7.164;2023-07-13T01:27:12;3.35;;;0.93;;
21192;SDS011;10754;51.106;7.164;2023-07-13T01:29:44;2.03;;;0.63;;
21192;SDS011;10754;51.106;7.164;2023-07-13T01:32:13;1.45;;;0.90;;
21192;SDS011;10754;51.106;7.164;2023-07-13T01:34:40;3.05;;;1.05;;
21192;SDS011;10754;51.106;7.164;2023-07-13T01:37:07;1.55;;;0.80;;
21192;SDS011;10754;51.106;7.164;2023-07-13T01:39:37;2.20;;;1.35;;
21192;SDS011;10754;51.106;7.164;2023-07-13T01:42:02;1.65;;;0.90;;
21192;SDS011;10754;51.106;7.164;2023-07-13T01:44:28;2.17;;;0.77;;
21192;SDS011;10754;51.106;7.164;2023-07-13T01:46:54;2.58;;;0.90;;
21192;SDS011;10754;51.106;7.164;2023-07-13T01:49:20;2.40;;;0.77;;
21192;SDS011;10754;51.106;7.164;2023-07-13T01:51:45;2.13;;;0.82;;
21192;SDS011;10754;51.106;7.164;2023-07-13T01:54:11;2.13;;;1.00;;
21192;SDS011;10754;51.106;7.164;2023-07-13T01:56:36;2.03;;;0.90;;
21192;SDS011;10754;51.106;7.164;2023-07-13T01:59:02;1.27;;;0.80;;
21192;SDS011;10754;51.106;7.164;2023-07-13T02:01:27;2.67;;;0.75;;
21192;SDS011;10754;51.106;7.164;2023-07-13T02:03:53;1.75;;;1.23;;
21192;SDS011;10754;51.106;7.164;2023-07-13T02:06:19;1.55;;;0.85;;
21192;SDS011;10754;51.106;7.164;2023-07-13T02:08:44;3.08;;;1.10;;
21192;SDS011;10754;51.106;7.164;2023-07-13T02:11:10;1.83;;;0.90;;
21192;SDS011;10754;51.106;7.164;2023-07-13T02:13:36;2.05;;;0.80;;
21192;SDS011;10754;51.106;7.164;2023-07-13T02:16:01;3.92;;;0.82;;
21192;SDS011;10754;51.106;7.164;2023-07-13T02:18:27;1.38;;;0.63;;
21192;SDS011;10754;51.106;7.164;2023-07-13T02:20:52;2.50;;;0.73;;
21192;SDS011;10754;51.106;7.164;2023-07-13T02:23:18;4.43;;;1.42;;
21192;SDS011;10754;51.106;7.164;2023-07-13T02:25:43;2.60;;;0.90;;
21192;SDS011;10754;51.106;7.164;2023-07-13T02:28:09;1.88;;;0.80;;
21192;SDS011;10754;51.106;7.164;2023-07-13T02:30:35;2.05;;;0.88;;
21192;SDS011;10754;51.106;7.164;2023-07-13T02:33:01;2.50;;;0.88;;
21192;SDS011;10754;51.106;7.164;2023-07-13T02:35:27;2.60;;;1.10;;
21192;SDS011;10754;51.106;7.164;2023-07-13T02:37:52;2.35;;;0.88;;
21192;SDS011;10754;51.106;7.164;2023-07-13T02:40:18;1.92;;;1.10;;
21192;SDS011;10754;51.106;7.164;2023-07-13T02:42:43;3.00;;;0.82;;
21192;SDS011;10754;51.106;7.164;2023-07-13T02:45:09;2.17;;;1.10;;
21192;SDS011;10754;51.106;7.164;2023-07-13T02:47:35;3.47;;;1.30;;
21192;SDS011;10754;51.106;7.164;2023-07-13T02:50:01;2.45;;;0.93;;
21192;SDS011;10754;51.106;7.164;2023-07-13T02:52:27;2.45;;;1.10;;
21192;SDS011;10754;51.106;7.164;2023-07-13T02:54:53;2.35;;;0.80;;
21192;SDS011;10754;51.106;7.164;2023-07-13T02:57:18;1.80;;;0.90;;
21192;SDS011;10754;51.106;7.164;2023-07-13T02:59:44;1.75;;;0.80;;
21192;SDS011;10754;51.106;7.164;2023-07-13T03:02:09;2.05;;;0.63;;
21192;SDS011;10754;51.106;7.164;2023-07-13T03:04:35;2.22;;;0.82;;
21192;SDS011;10754;51.106;7.164;2023-07-13T03:07:02;1.90;;;0.80;;
21192;SDS011;10754;51.106;7.164;2023-07-13T03:09:28;2.35;;;1.00;;
21192;SDS011;10754;51.106;7.164;2023-07-13T03:11:54;2.55;;;1.00;;
21192;SDS011;10754;51.106;7.164;2023-07-13T03:14:21;1.08;;;0.70;;
21192;SDS011;10754;51.106;7.164;2023-07-13T03:16:47;2.00;;;0.80;;
21192;SDS011;10754;51.106;7.164;2023-07-13T03:19:13;2.35;;;0.85;;
21192;SDS011;10754;51.106;7.164;2023-07-13T03:21:39;3.63;;;0.93;;
21192;SDS011;10754;51.106;7.164;2023-07-13T03:24:04;2.55;;;0.80;;
21192;SDS011;10754;51.106;7.164;2023-07-13T03:26:30;1.60;;;0.90;;
21192;SDS011;10754;51.106;7.164;2023-07-13T03:28:56;1.27;;;0.88;;
21192;SDS011;10754;51.106;7.164;2023-07-13T03:31:24;2.17;;;1.17;;
21192;SDS011;10754;51.106;7.164;2023-07-13T03:33:51;2.20;;;1.13;;
21192;SDS011;10754;51.106;7.164;2023-07-13T03:36:18;2.50;;;1.27;;
21192;SDS011;10754;51.106;7.164;2023-07-13T03:38:46;2.08;;;1.05;;
21192;SDS011;10754;51.106;7.164;2023-07-13T03:41:14;1.67;;;0.80;;
21192;SDS011;10754;51.106;7.164;2023-07-13T03:43:40;2.08;;;0.93;;
21192;SDS011;10754;51.106;7.164;2023-07-13T03:46:05;1.33;;;0.60;;
21192;SDS011;10754;51.106;7.164;2023-07-13T03:48:31;1.25;;;0.88;;
21192;SDS011;10754;51.106;7.164;2023-07-13T03:50:56;2.17;;;1.20;;
21192;SDS011;10754;51.106;7.164;2023-07-13T03:53:22;1.80;;;0.80;;
21192;SDS011;10754;51.106;7.164;2023-07-13T03:55:47;2.45;;;0.80;;
21192;SDS011;10754;51.106;7.164;2023-07-13T03:58:26;2.63;;;0.90;;
21192;SDS011;10754;51.106;7.164;2023-07-13T04:00:52;1.95;;;1.00;;
21192;SDS011;10754;51.106;7.164;2023-07-13T04:03:17;2.20;;;1.00;;
21192;SDS011;10754;51.106;7.164;2023-07-13T04:05:43;1.35;;;1.02;;
21192;SDS011;10754;51.106;7.164;2023-07-13T04:08:08;2.78;;;1.20;;
21192;SDS011;10754;51.106;7.164;2023-07-13T04:10:34;2.72;;;0.88;;
21192;SDS011;10754;51.106;7.164;2023-07-13T04:12:59;3.78;;;1.08;;
21192;SDS011;10754;51.106;7.164;2023-07-13T04:15:25;4.35;;;1.38;;
21192;SDS011;10754;51.106;7.164;2023-07-13T04:17:54;1.80;;;0.90;;
21192;SDS011;10754;51.106;7.164;2023-07-13T04:20:19;2.28;;;0.95;;
21192;SDS011;10754;51.106;7.164;2023-07-13T04:22:45;2.28;;;0.93;;
21192;SDS011;10754;51.106;7.164;2023-07-13T04:25:11;2.45;;;0.80;;
21192;SDS011;10754;51.106;7.164;2023-07-13T04:27:36;2.28;;;0.90;;
21192;SDS011;10754;51.106;7.164;2023-07-13T04:30:02;2.03;;;0.93;;
21192;SDS011;10754;51.106;7.164;2023-07-13T04:32:27;2.45;;;1.02;;
21192;SDS011;10754;51.106;7.164;2023-07-13T04:34:53;2.83;;;1.15;;
21192;SDS011;10754;51.106;7.164;2023-07-13T04:37:20;2.67;;;0.88;;
21192;SDS011;10754;51.106;7.164;2023-07-13T04:39:46;2.10;;;1.23;;
21192;SDS011;10754;51.106;7.164;2023-07-13T04:42:11;3.03;;;1.05;;
21192;SDS011;10754;51.106;7.164;2023-07-13T04:44:37;1.80;;;1.05;;
21192;SDS011;10754;51.106;7.164;2023-07-13T04:47:03;2.28;;;0.98;;
21192;SDS011;10754;51.106;7.164;2023-07-13T04:49:28;3.00;;;1.00;;
21192;SDS011;10754;51.106;7.164;2023-07-13T04:51:54;3.90;;;0.95;;
21192;SDS011;10754;51.106;7.164;2023-07-13T04:54:19;1.98;;;0.70;;
21192;SDS011;10754;51.106;7.164;2023-07-13T04:56:46;4.50;;;0.90;;
21192;SDS011;10754;51.106;7.164;2023-07-13T04:59:11;3.05;;;1.20;;
21192;SDS011;10754;51.106;7.164;2023-07-13T05:01:37;2.88;;;0.90;;
21192;SDS011;10754;51.106;7.164;2023-07-13T05:04:02;4.93;;;1.23;;
21192;SDS011;10754;51.106;7.164;2023-07-13T05:06:28;3.38;;;1.33;;
21192;SDS011;10754;51.106;7.164;2023-07-13T05:08:55;4.43;;;1.27;;
21192;SDS011;10754;51.106;7.164;2023-07-13T05:11:20;3.30;;;1.27;;
21192;SDS011;10754;51.106;7.164;2023-07-13T05:13:46;2.63;;;1.10;;
21192;SDS011;10754;51.106;7.164;2023-07-13T05:16:12;3.55;;;1.00;;
21192;SDS011;10754;51.106;7.164;2023-07-13T05:18:37;2.08;;;1.23;;
21192;SDS011;10754;51.106;7.164;2023-07-13T05:21:04;3.90;;;1.40;;
21192;SDS011;10754;51.106;7.164;2023-07-13T05:23:32;4.07;;;1.33;;
21192;SDS011;10754;51.106;7.164;2023-07-13T05:25:59;2.75;;;1.20;;
21192;SDS011;10754;51.106;7.164;2023-07-13T05:28:25;4.82;;;1.45;;
21192;SDS011;10754;51.106;7.164;2023-07-13T05:30:52;3.55;;;1.10;;
21192;SDS011;10754;51.106;7.164;2023-07-13T05:33:18;6.03;;;1.35;;
21192;SDS011;10754;51.106;7.164;2023-07-13T05:35:44;4.20;;;1.20;;
21192;SDS011;10754;51.106;7.164;2023-07-13T05:38:10;3.95;;;1.10;;
21192;SDS011;10754;51.106;7.164;2023-07-13T05:40:35;4.25;;;1.30;;
21192;SDS011;10754;51.106;7.164;2023-07-13T05:43:01;2.95;;;1.25;;
21192;SDS011;10754;51.106;7.164;2023-07-13T05:45:27;2.97;;;1.10;;
21192;SDS011;10754;51.106;7.164;2023-07-13T05:47:52;3.58;;;1.10;;
21192;SDS011;10754;51.106;7.164;2023-07-13T05:50:18;2.55;;;1.27;;
21192;SDS011;10754;51.106;7.164;2023-07-13T05:52:43;3.15;;;1.33;;
21192;SDS011;10754;51.106;7.164;2023-07-13T05:55:09;3.58;;;1.30;;
21192;SDS011;10754;51.106;7.164;2023-07-13T05:57:34;4.47;;;1.48;;
21192;SDS011;10754;51.106;7.164;2023-07-13T06:00:00;3.58;;;1.58;;
21192;SDS011;10754;51.106;7.164;2023-07-13T06:02:25;3.03;;;1.23;;
21192;SDS011;10754;51.106;7.164;2023-07-13T06:04:52;4.10;;;1.35;;
21192;SDS011;10754;51.106;7.164;2023-07-13T06:07:17;3.45;;;1.58;;
21192;SDS011;10754;51.106;7.164;2023-07-13T06:09:43;4.90;;;1.25;;
21192;SDS011;10754;51.106;7.164;2023-07-13T06:12:08;2.97;;;1.30;;
21192;SDS011;10754;51.106;7.164;2023-07-13T06:14:34;3.50;;;1.38;;
21192;SDS011;10754;51.106;7.164;2023-07-13T06:17:00;4.75;;;1.42;;
21192;SDS011;10754;51.106;7.164;2023-07-13T06:19:25;6.03;;;1.50;;
21192;SDS011;10754;51.106;7.164;2023-07-13T06:21:51;3.13;;;1.15;;
21192;SDS011;10754;51.106;7.164;2023-07-13T06:24:16;3.25;;;1.42;;
21192;SDS011;10754;51.106;7.164;2023-07-13T06:26:42;4.13;;;1.70;;
21192;SDS011;10754;51.106;7.164;2023-07-13T06:29:07;2.47;;;1.40;;
21192;SDS011;10754;51.106;7.164;2023-07-13T06:31:33;3.33;;;1.35;;
21192;SDS011;10754;51.106;7.164;2023-07-13T06:33:58;3.10;;;1.45;;
21192;SDS011;10754;51.106;7.164;2023-07-13T06:36:24;2.78;;;1.25;;
21192;SDS011;10754;51.106;7.164;2023-07-13T06:38:49;3.25;;;1.30;;
21192;SDS011;10754;51.106;7.164;2023-07-13T06:41:15;4.20;;;1.45;;
21192;SDS011;10754;51.106;7.164;2023-07-13T06:43:40;4.22;;;1.80;;
21192;SDS011;10754;51.106;7.164;2023-07-13T06:46:06;4.28;;;1.80;;
21192;SDS011;10754;51.106;7.164;2023-07-13T06:48:32;4.13;;;1.48;;
21192;SDS011;10754;51.106;7.164;2023-07-13T06:50:58;6.30;;;1.52;;
21192;SDS011;10754;51.106;7.164;2023-07-13T06:53:23;2.20;;;0.95;;
21192;SDS011;10754;51.106;7.164;2023-07-13T06:55:49;5.07;;;1.70;;
21192;SDS011;10754;51.106;7.164;2023-07-13T06:58:15;4.85;;;1.85;;
21192;SDS011;10754;51.106;7.164;2023-07-13T07:00:42;4.82;;;1.73;;
21192;SDS011;10754;51.106;7.164;2023-07-13T07:03:08;4.00;;;1.50;;
21192;SDS011;10754;51.106;7.164;2023-07-13T07:05:33;4.38;;;1.65;;
21192;SDS011;10754;51.106;7.164;2023-07-13T07:07:59;4.25;;;1.42;;
21192;SDS011;10754;51.106;7.164;2023-07-13T07:10:25;4.60;;;1.70;;
21192;SDS011;10754;51.106;7.164;2023-07-13T07:12:51;3.75;;;1.35;;
21192;SDS011;10754;51.106;7.164;2023-07-13T07:15:16;5.07;;;1.48;;
21192;SDS011;10754;51.106;7.164;2023-07-13T07:17:43;4.15;;;1.40;;
21192;SDS011;10754;51.106;7.164;2023-07-13T07:20:08;4.60;;;1.60;;
21192;SDS011;10754;51.106;7.164;2023-07-13T07:22:35;6.13;;;1.83;;
21192;SDS011;10754;51.106;7.164;2023-07-13T07:25:00;7.88;;;1.92;;
21192;SDS011;10754;51.106;7.164;2023-07-13T07:27:26;2.78;;;1.30;;
21192;SDS011;10754;51.106;7.164;2023-07-13T07:29:51;4.05;;;1.40;;
21192;SDS011;10754;51.106;7.164;2023-07-13T07:32:17;3.35;;;1.40;;
21192;SDS011;10754;51.106;7.164;2023-07-13T07:34:43;3.90;;;1.65;;
21192;SDS011;10754;51.106;7.164;2023-07-13T07:37:09;5.00;;;1.60;;
21192;SDS011;10754;51.106;7.164;2023-07-13T07:39:36;3.28;;;1.40;;
21192;SDS011;10754;51.106;7.164;2023-07-13T07:42:02;3.58;;;1.48;;
21192;SDS011;10754;51.106;7.164;2023-07-13T07:44:30;2.97;;;1.20;;
21192;SDS011;10754;51.106;7.164;2023-07-13T07:46:56;3.80;;;1.77;;
21192;SDS011;10754;51.106;7.164;2023-07-13T07:49:21;4.10;;;1.55;;
21192;SDS011;10754;51.106;7.164;2023-07-13T07:51:47;5.22;;;1.85;;
21192;SDS011;10754;51.106;7.164;2023-07-13T07:54:12;4.00;;;2.15;;
21192;SDS011;10754;51.106;7.164;2023-07-13T07:56:39;4.55;;;1.52;;
21192;SDS011;10754;51.106;7.164;2023-07-13T07:59:05;2.67;;;1.60;;
21192;SDS011;10754;51.106;7.164;2023-07-13T08:01:31;4.03;;;1.70;;
21192;SDS011;10754;51.106;7.164;2023-07-13T08:03:56;5.65;;;2.13;;
21192;SDS011;10754;51.106;7.164;2023-07-13T08:06:22;7.03;;;2.05;;
21192;SDS011;10754;51.106;7.164;2023-07-13T08:08:48;6.82;;;1.75;;
21192;SDS011;10754;51.106;7.164;2023-07-13T08:11:13;3.35;;;1.40;;
21192;SDS011;10754;51.106;7.164;2023-07-13T08:13:39;4.78;;;2.13;;
21192;SDS011;10754;51.106;7.164;2023-07-13T08:16:05;4.15;;;2.00;;
21192;SDS011;10754;51.106;7.164;2023-07-13T08:18:31;4.70;;;1.80;;
21192;SDS011;10754;51.106;7.164;2023-07-13T08:20:57;3.90;;;1.52;;
21192;SDS011;10754;51.106;7.164;2023-07-13T08:23:23;3.83;;;1.60;;
21192;SDS011;10754;51.106;7.164;2023-07-13T08:25:52;4.95;;;1.80;;
21192;SDS011;10754;51.106;7.164;2023-07-13T08:28:19;5.97;;;1.90;;
21192;SDS011;10754;51.106;7.164;2023-07-13T08:30:46;6.45;;;1.50;;
21192;SDS011;10754;51.106;7.164;2023-07-13T08:33:14;4.07;;;1.60;;
21192;SDS011;10754;51.106;7.164;2023-07-13T08:35:45;5.13;;;1.83;;
21192;SDS011;10754;51.106;7.164;2023-07-13T08:38:11;4.10;;;1.90;;
21192;SDS011;10754;51.106;7.164;2023-07-13T08:40:37;3.30;;;1.50;;
21192;SDS011;10754;51.106;7.164;2023-07-13T08:43:04;4.43;;;1.63;;
21192;SDS011;10754;51.106;7.164;2023-07-13T08:45:33;7.45;;;1.70;;
21192;SDS011;10754;51.106;7.164;2023-07-13T08:50:54;3.17;;;1.73;;
21192;SDS011;10754;51.106;7.164;2023-07-13T08:53:54;10.40;;;2.08;;
21192;SDS011;10754;51.106;7.164;2023-07-13T08:56:25;4.60;;;1.70;;
21192;SDS011;10754;51.106;7.164;2023-07-13T08:58:55;4.57;;;1.60;;
21192;SDS011;10754;51.106;7.164;2023-07-13T09:01:46;5.05;;;1.83;;
21192;SDS011;10754;51.106;7.164;2023-07-13T09:04:19;2.88;;;1.50;;
21192;SDS011;10754;51.106;7.164;2023-07-13T09:12:17;3.80;;;1.95;;
21192;SDS011;10754;51.106;7.164;2023-07-13T09:14:53;5.18;;;1.85;;
21192;SDS011;10754;51.106;7.164;2023-07-13T09:17:22;3.33;;;1.85;;
21192;SDS011;10754;51.106;7.164;2023-07-13T09:20:03;3.35;;;1.67;;
21192;SDS011;10754;51.106;7.164;2023-07-13T09:22:39;4.30;;;1.55;;
21192;SDS011;10754;51.106;7.164;2023-07-13T09:27:50;4.03;;;1.90;;
21192;SDS011;10754;51.106;7.164;2023-07-13T09:30:24;6.10;;;1.95;;
21192;SDS011;10754;51.106;7.164;2023-07-13T09:32:58;3.97;;;1.90;;
21192;SDS011;10754;51.106;7.164;2023-07-13T09:35:27;3.58;;;1.77;;
21192;SDS011;10754;51.106;7.164;2023-07-13T09:38:15;3.53;;;1.65;;
21192;SDS011;10754;51.106;7.164;2023-07-13T09:43:26;4.47;;;1.95;;
21192;SDS011;10754;51.106;7.164;2023-07-13T09:45:54;5.80;;;1.70;;
21192;SDS011;10754;51.106;7.164;2023-07-13T09:48:20;2.30;;;1.23;;
21192;SDS011;10754;51.106;7.164;2023-07-13T09:50:46;2.97;;;1.30;;
21192;SDS011;10754;51.106;7.164;2023-07-13T09:53:13;3.78;;;1.70;;
21192;SDS011;10754;51.106;7.164;2023-07-13T09:55:41;4.25;;;1.55;;
21192;SDS011;10754;51.106;7.164;2023-07-13T10:00:43;3.40;;;1.40;;
21192;SDS011;10754;51.106;7.164;2023-07-13T10:03:19;3.92;;;1.42;;
21192;SDS011;10754;51.106;7.164;2023-07-13T10:05:50;3.50;;;1.50;;
21192;SDS011;10754;51.106;7.164;2023-07-13T10:08:17;3.20;;;1.42;;
21192;SDS011;10754;51.106;7.164;2023-07-13T10:10:52;4.22;;;1.40;;
21192;SDS011;10754;51.106;7.164;2023-07-13T10:13:26;3.35;;;1.90;;
21192;SDS011;10754;51.106;7.164;2023-07-13T10:15:55;2.90;;;1.33;;
21192;SDS011;10754;51.106;7.164;2023-07-13T10:18:21;3.45;;;1.33;;
21192;SDS011;10754;51.106;7.164;2023-07-13T10:20:50;3.13;;;1.33;;
21192;SDS011;10754;51.106;7.164;2023-07-13T10:23:20;3.35;;;1.30;;
21192;SDS011;10754;51.106;7.164;2023-07-13T10:25:57;2.80;;;1.30;;
21192;SDS011;10754;51.106;7.164;2023-07-13T10:28:35;3.92;;;1.30;;
21192;SDS011;10754;51.106;7.164;2023-07-13T10:31:02;5.07;;;1.60;;
21192;SDS011;10754;51.106;7.164;2023-07-13T10:33:35;4.85;;;1.35;;
21192;SDS011;10754;51.106;7.164;2023-07-13T10:36:08;3.47;;;1.48;;
21192;SDS011;10754;51.106;7.164;2023-07-13T10:38:37;3.25;;;1.38;;
21192;SDS011;10754;51.106;7.164;2023-07-13T10:41:05;2.35;;;1.25;;
21192;SDS011;10754;51.106;7.164;2023-07-13T10:43:36;2.40;;;1.50;;
21192;SDS011;10754;51.106;7.164;2023-07-13T10:46:07;2.65;;;1.17;;
21192;SDS011;10754;51.106;7.164;2023-07-13T10:48:34;3.30;;;1.38;;
21192;SDS011;10754;51.106;7.164;2023-07-13T10:51:02;2.53;;;1.00;;
21192;SDS011;10754;51.106;7.164;2023-07-13T10:53:31;2.83;;;1.05;;
21192;SDS011;10754;51.106;7.164;2023-07-13T10:56:00;2.60;;;1.10;;
21192;SDS011;10754;51.106;7.164;2023-07-13T11:03:31;3.58;;;1.58;;
21192;SDS011;10754;51.106;7.164;2023-07-13T11:18:49;2.90;;;1.10;;
21192;SDS011;10754;51.106;7.164;2023-07-13T11:21:17;2.83;;;1.08;;
21192;SDS011;10754;51.106;7.164;2023-07-13T11:23:45;2.75;;;1.08;;
21192;SDS011;10754;51.106;7.164;2023-07-13T11:31:40;2.70;;;0.98;;
21192;SDS011;10754;51.106;7.164;2023-07-13T11:34:18;2.28;;;0.95;;
21192;SDS011;10754;51.106;7.164;2023-07-13T11:36:50;3.13;;;1.13;;
21192;SDS011;10754;51.106;7.164;2023-07-13T11:41:45;4.50;;;1.73;;
21192;SDS011;10754;51.106;7.164;2023-07-13T11:44:21;2.83;;;1.02;;
21192;SDS011;10754;51.106;7.164;2023-07-13T11:46:50;2.42;;;0.98;;
21192;SDS011;10754;51.106;7.164;2023-07-13T11:49:20;3.35;;;1.20;;
21192;SDS011;10754;51.106;7.164;2023-07-13T11:51:47;3.42;;;1.05;;
21192;SDS011;10754;51.106;7.164;2023-07-13T11:54:29;3.17;;;1.70;;
21192;SDS011;10754;51.106;7.164;2023-07-13T11:56:59;4.20;;;1.33;;
21192;SDS011;10754;51.106;7.164;2023-07-13T11:59:44;4.45;;;1.20;;
21192;SDS011;10754;51.106;7.164;2023-07-13T12:02:15;2.67;;;1.33;;
21192;SDS011;10754;51.106;7.164;2023-07-13T12:04:53;4.63;;;1.63;;
21192;SDS011;10754;51.106;7.164;2023-07-13T12:07:19;3.17;;;1.20;;
21192;SDS011;10754;51.106;7.164;2023-07-13T12:09:45;1.95;;;1.30;;
21192;SDS011;10754;51.106;7.164;2023-07-13T12:12:12;1.85;;;0.90;;
21192;SDS011;10754;51.106;7.164;2023-07-13T12:14:39;2.00;;;1.20;;
21192;SDS011;10754;51.106;7.164;2023-07-13T12:17:09;2.63;;;1.10;;
21192;SDS011;10754;51.106;7.164;2023-07-13T12:19:45;2.78;;;1.20;;
21192;SDS011;10754;51.106;7.164;2023-07-13T12:22:13;3.63;;;1.17;;
21192;SDS011;10754;51.106;7.164;2023-07-13T12:24:40;2.08;;;1.05;;
21192;SDS011;10754;51.106;7.164;2023-07-13T12:27:15;2.17;;;0.95;;
21192;SDS011;10754;51.106;7.164;2023-07-13T12:30:23;2.28;;;1.35;;
21192;SDS011;10754;51.106;7.164;2023-07-13T12:32:57;2.17;;;1.10;;
21192;SDS011;10754;51.106;7.164;2023-07-13T12:35:38;3.17;;;1.08;;
21192;SDS011;10754;51.106;7.164;2023-07-13T12:38:08;1.83;;;0.88;;
21192;SDS011;10754;51.106;7.164;2023-07-13T12:40:36;5.30;;;1.20;;
21192;SDS011;10754;51.106;7.164;2023-07-13T12:43:02;3.38;;;1.48;;
21192;SDS011;10754;51.106;7.164;2023-07-13T12:45:31;2.78;;;1.13;;
21192;SDS011;10754;51.106;7.164;2023-07-13T12:47:59;3.55;;;1.00;;
21192;SDS011;10754;51.106;7.164;2023-07-13T12:50:39;3.35;;;1.05;;
21192;SDS011;10754;51.106;7.164;2023-07-13T12:53:06;1.80;;;1.02;;
21192;SDS011;10754;51.106;7.164;2023-07-13T12:55:49;2.33;;;0.98;;
21192;SDS011;10754;51.106;7.164;2023-07-13T12:58:24;3.05;;;1.10;;
21192;SDS011;10754;51.106;7.164;2023-07-13T13:00:50;3.75;;;1.40;;
21192;SDS011;10754;51.106;7.164;2023-07-13T13:05:58;1.92;;;0.85;;
21192;SDS011;10754;51.106;7.164;2023-07-13T13:08:25;3.80;;;1.15;;
21192;SDS011;10754;51.106;7.164;2023-07-13T13:10:51;2.55;;;1.00;;
21192;SDS011;10754;51.106;7.164;2023-07-13T13:13:16;3.20;;;0.95;;
21192;SDS011;10754;51.106;7.164;2023-07-13T13:15:42;3.00;;;1.10;;
21192;SDS011;10754;51.106;7.164;2023-07-13T13:18:18;3.78;;;1.27;;
21192;SDS011;10754;51.106;7.164;2023-07-13T13:20:46;3.28;;;1.30;;
21192;SDS011;10754;51.106;7.164;2023-07-13T13:23:13;5.03;;;1.20;;
21192;SDS011;10754;51.106;7.164;2023-07-13T13:25:42;3.03;;;0.95;;
21192;SDS011;10754;51.106;7.164;2023-07-13T13:28:12;2.95;;;1.08;;
21192;SDS011;10754;51.106;7.164;2023-07-13T13:30:41;2.67;;;1.00;;
21192;SDS011;10754;51.106;7.164;2023-07-13T13:33:09;2.38;;;1.05;;
21192;SDS011;10754;51.106;7.164;2023-07-13T13:35:37;2.65;;;0.80;;
21192;SDS011;10754;51.106;7.164;2023-07-13T13:38:13;2.00;;;0.77;;
21192;SDS011;10754;51.106;7.164;2023-07-13T13:40:40;3.03;;;0.95;;
21192;SDS011;10754;51.106;7.164;2023-07-13T13:43:26;2.55;;;0.98;;
21192;SDS011;10754;51.106;7.164;2023-07-13T13:45:55;1.77;;;0.95;;
21192;SDS011;10754;51.106;7.164;2023-07-13T13:48:26;1.58;;;0.90;;
21192;SDS011;10754;51.106;7.164;2023-07-13T13:51:01;1.75;;;0.75;;
21192;SDS011;10754;51.106;7.164;2023-07-13T13:53:38;1.75;;;0.93;;
21192;SDS011;10754;51.106;7.164;2023-07-13T13:56:04;2.50;;;0.77;;
21192;SDS011;10754;51.106;7.164;2023-07-13T13:58:30;2.15;;;0.93;;
21192;SDS011;10754;51.106;7.164;2023-07-13T14:00:55;2.78;;;1.20;;
21192;SDS011;10754;51.106;7.164;2023-07-13T14:03:23;3.30;;;0.88;;
21192;SDS011;10754;51.106;7.164;2023-07-13T14:05:49;1.73;;;0.90;;
21192;SDS011;10754;51.106;7.164;2023-07-13T14:08:15;2.53;;;1.02;;
21192;SDS011;10754;51.106;7.164;2023-07-13T14:10:42;1.77;;;1.02;;
21192;SDS011;10754;51.106;7.164;2023-07-13T14:13:22;2.83;;;0.90;;
21192;SDS011;10754;51.106;7.164;2023-07-13T14:15:52;2.33;;;0.95;;
21192;SDS011;10754;51.106;7.164;2023-07-13T14:18:19;1.63;;;0.88;;
21192;SDS011;10754;51.106;7.164;2023-07-13T14:20:45;2.47;;;1.13;;
21192;SDS011;10754;51.106;7.164;2023-07-13T14:23:13;2.08;;;0.88;;
21192;SDS011;10754;51.106;7.164;2023-07-13T14:25:40;2.17;;;0.82;;
21192;SDS011;10754;51.106;7.164;2023-07-13T14:28:18;2.28;;;0.82;;
21192;SDS011;10754;51.106;7.164;2023-07-13T14:30:51;1.88;;;0.70;;
21192;SDS011;10754;51.106;7.164;2023-07-13T14:33:17;1.95;;;0.80;;
21192;SDS011;10754;51.106;7.164;2023-07-13T14:35:43;3.00;;;0.70;;
21192;SDS011;10754;51.106;7.164;2023-07-13T14:38:16;1.88;;;1.00;;
21192;SDS011;10754;51.106;7.164;2023-07-13T14:40:44;2.70;;;0.60;;
21192;SDS011;10754;51.106;7.164;2023-07-13T14:43:10;2.60;;;0.85;;
21192;SDS011;10754;51.106;7.164;2023-07-13T14:45:41;3.40;;;1.17;;
21192;SDS011;10754;51.106;7.164;2023-07-13T14:48:22;1.77;;;0.70;;
21192;SDS011;10754;51.106;7.164;2023-07-13T14:50:58;1.25;;;0.70;;
21192;SDS011;10754;51.106;7.164;2023-07-13T14:53:25;2.95;;;0.90;;
21192;SDS011;10754;51.106;7.164;2023-07-13T14:55:52;1.95;;;0.77;;
21192;SDS011;10754;51.106;7.164;2023-07-13T14:58:18;2.13;;;0.98;;
21192;SDS011;10754;51.106;7.164;2023-07-13T15:00:44;3.08;;;0.70;;
21192;SDS011;10754;51.106;7.164;2023-07-13T15:03:16;2.25;;;0.68;;
21192;SDS011;10754;51.106;7.164;2023-07-13T15:05:49;1.75;;;0.93;;
21192;SDS011;10754;51.106;7.164;2023-07-13T15:08:15;2.15;;;0.80;;
21192;SDS011;10754;51.106;7.164;2023-07-13T15:10:41;1.58;;;0.70;;
21192;SDS011;10754;51.106;7.164;2023-07-13T15:13:19;4.15;;;1.00;;
21192;SDS011;10754;51.106;7.164;2023-07-13T15:15:52;3.63;;;1.10;;
21192;SDS011;10754;51.106;7.164;2023-07-13T15:18:19;1.55;;;1.00;;
21192;SDS011;10754;51.106;7.164;2023-07-13T15:20:47;1.60;;;1.00;;
21192;SDS011;10754;51.106;7.164;2023-07-13T15:23:14;2.28;;;1.08;;
21192;SDS011;10754;51.106;7.164;2023-07-13T15:25:42;2.42;;;0.85;;
21192;SDS011;10754;51.106;7.164;2023-07-13T15:28:08;1.58;;;0.70;;
21192;SDS011;10754;51.106;7.164;2023-07-13T15:30:36;2.22;;;0.80;;
21192;SDS011;10754;51.106;7.164;2023-07-13T15:33:10;3.45;;;1.15;;
21192;SDS011;10754;51.106;7.164;2023-07-13T15:35:38;1.98;;;0.85;;
21192;SDS011;10754;51.106;7.164;2023-07-13T15:38:12;2.70;;;1.08;;
21192;SDS011;10754;51.106;7.164;2023-07-13T15:40:39;4.70;;;1.40;;